sensor_id;sensor_type;location;lat;lon;timestamp;P1;durP1;ratioP1;P2;durP2;ratioP2
2998;SDS011;1509;51.964;7.628;2022-12-07T00:01:11;23.97;;;14.87;;
2998;SDS011;1509;51.964;7.628;2022-12-07T00:03:44;29.43;;;16.13;;
2998;SDS011;1509;51.964;7.628;2022-12-07T00:06:12;25.33;;;14.87;;
2998;SDS011;1509;51.964;7.628;2022-12-07T00:08:39;24.47;;;14.80;;
2998;SDS011;1509;51.964;7.628;2022-12-07T00:11:06;23.30;;;13.67;;
2998;SDS011;1509;51.964;7.628;2022-12-07T00:13:33;27.77;;;14.37;;
2998;SDS011;1509;51.964;7.628;2022-12-07T00:16:04;24.30;;;15.87;;
2998;SDS011;1509;51.964;7.628;2022-12-07T00:18:33;19.77;;;15.30;;
2998;SDS011;1509;51.964;7.628;2022-12-07T00:21:00;20.80;;;13.90;;
2998;SDS011;1509;51.964;7.628;2022-12-07T00:23:28;22.00;;;13.90;;
2998;SDS011;1509;51.964;7.628;2022-12-07T00:25:53;19.93;;;13.33;;
2998;SDS011;1509;51.964;7.628;2022-12-07T00:28:19;19.07;;;12.80;;
2998;SDS011;1509;51.964;7.628;2022-12-07T00:30:44;20.33;;;12.27;;
2998;SDS011;1509;51.964;7.628;2022-12-07T00:33:10;18.53;;;12.10;;
2998;SDS011;1509;51.964;7.628;2022-12-07T00:35:35;21.90;;;12.97;;
2998;SDS011;1509;51.964;7.628;2022-12-07T00:38:01;18.30;;;11.90;;
2998;SDS011;1509;51.964;7.628;2022-12-07T00:40:26;19.03;;;12.70;;
2998;SDS011;1509;51.964;7.628;2022-12-07T00:42:52;19.90;;;12.83;;
2998;SDS011;1509;51.964;7.628;2022-12-07T00:45:18;23.33;;;11.57;;
2998;SDS011;1509;51.964;7.628;2022-12-07T00:47:43;15.17;;;11.37;;
2998;SDS011;1509;51.964;7.628;2022-12-07T00:50:09;19.83;;;12.67;;
2998;SDS011;1509;51.964;7.628;2022-12-07T00:52:34;18.90;;;11.87;;
2998;SDS011;1509;51.964;7.628;2022-12-07T00:55:00;18.00;;;11.87;;
2998;SDS011;1509;51.964;7.628;2022-12-07T00:57:25;19.57;;;10.93;;
2998;SDS011;1509;51.964;7.628;2022-12-07T00:59:51;19.97;;;13.80;;
2998;SDS011;1509;51.964;7.628;2022-12-07T01:02:20;21.20;;;12.73;;
2998;SDS011;1509;51.964;7.628;2022-12-07T01:04:46;16.63;;;11.20;;
2998;SDS011;1509;51.964;7.628;2022-12-07T01:07:12;21.03;;;12.10;;
2998;SDS011;1509;51.964;7.628;2022-12-07T01:09:37;18.37;;;11.87;;
2998;SDS011;1509;51.964;7.628;2022-12-07T01:12:06;23.83;;;13.27;;
2998;SDS011;1509;51.964;7.628;2022-12-07T01:14:31;19.43;;;12.77;;
2998;SDS011;1509;51.964;7.628;2022-12-07T01:16:57;17.93;;;11.77;;
2998;SDS011;1509;51.964;7.628;2022-12-07T01:19:22;16.00;;;11.03;;
2998;SDS011;1509;51.964;7.628;2022-12-07T01:21:48;19.30;;;10.90;;
2998;SDS011;1509;51.964;7.628;2022-12-07T01:24:13;18.77;;;12.13;;
2998;SDS011;1509;51.964;7.628;2022-12-07T01:26:39;20.40;;;11.00;;
2998;SDS011;1509;51.964;7.628;2022-12-07T01:29:05;18.30;;;10.53;;
2998;SDS011;1509;51.964;7.628;2022-12-07T01:31:30;18.17;;;11.90;;
2998;SDS011;1509;51.964;7.628;2022-12-07T01:33:57;19.93;;;11.70;;
2998;SDS011;1509;51.964;7.628;2022-12-07T01:36:28;16.90;;;11.73;;
2998;SDS011;1509;51.964;7.628;2022-12-07T01:38:56;22.07;;;11.73;;
2998;SDS011;1509;51.964;7.628;2022-12-07T01:41:25;18.10;;;12.00;;
2998;SDS011;1509;51.964;7.628;2022-12-07T01:46:39;15.57;;;11.07;;
2998;SDS011;1509;51.964;7.628;2022-12-07T01:49:08;15.90;;;10.77;;
2998;SDS011;1509;51.964;7.628;2022-12-07T01:51:35;15.93;;;9.77;;
2998;SDS011;1509;51.964;7.628;2022-12-07T01:54:03;16.50;;;11.50;;
2998;SDS011;1509;51.964;7.628;2022-12-07T01:56:29;19.67;;;11.37;;
2998;SDS011;1509;51.964;7.628;2022-12-07T01:58:57;22.40;;;11.50;;
2998;SDS011;1509;51.964;7.628;2022-12-07T02:01:25;16.63;;;10.80;;
2998;SDS011;1509;51.964;7.628;2022-12-07T02:03:50;20.37;;;11.20;;
2998;SDS011;1509;51.964;7.628;2022-12-07T02:06:18;18.23;;;10.93;;
2998;SDS011;1509;51.964;7.628;2022-12-07T02:08:47;20.37;;;10.93;;
2998;SDS011;1509;51.964;7.628;2022-12-07T02:11:12;18.67;;;11.77;;
2998;SDS011;1509;51.964;7.628;2022-12-07T02:13:39;18.60;;;11.20;;
2998;SDS011;1509;51.964;7.628;2022-12-07T02:21:33;19.13;;;11.80;;
2998;SDS011;1509;51.964;7.628;2022-12-07T02:27:43;14.03;;;10.37;;
2998;SDS011;1509;51.964;7.628;2022-12-07T02:30:31;20.50;;;10.77;;
2998;SDS011;1509;51.964;7.628;2022-12-07T02:33:06;17.37;;;10.43;;
2998;SDS011;1509;51.964;7.628;2022-12-07T02:38:13;22.50;;;12.17;;
2998;SDS011;1509;51.964;7.628;2022-12-07T02:40:55;21.57;;;11.77;;
2998;SDS011;1509;51.964;7.628;2022-12-07T02:43:34;18.80;;;10.97;;
2998;SDS011;1509;51.964;7.628;2022-12-07T02:46:03;18.10;;;11.20;;
2998;SDS011;1509;51.964;7.628;2022-12-07T02:48:32;20.13;;;11.43;;
2998;SDS011;1509;51.964;7.628;2022-12-07T02:51:02;15.23;;;10.23;;
2998;SDS011;1509;51.964;7.628;2022-12-07T02:53:28;18.80;;;11.30;;
2998;SDS011;1509;51.964;7.628;2022-12-07T02:56:03;18.30;;;11.17;;
2998;SDS011;1509;51.964;7.628;2022-12-07T03:06:58;19.70;;;11.57;;
2998;SDS011;1509;51.964;7.628;2022-12-07T03:09:38;17.47;;;11.17;;
2998;SDS011;1509;51.964;7.628;2022-12-07T03:12:18;22.53;;;11.87;;
2998;SDS011;1509;51.964;7.628;2022-12-07T03:14:52;14.57;;;10.33;;
2998;SDS011;1509;51.964;7.628;2022-12-07T03:17:55;17.50;;;10.30;;
2998;SDS011;1509;51.964;7.628;2022-12-07T03:20:23;20.30;;;12.37;;
2998;SDS011;1509;51.964;7.628;2022-12-07T03:22:50;16.63;;;10.90;;
2998;SDS011;1509;51.964;7.628;2022-12-07T03:25:19;17.17;;;10.10;;
2998;SDS011;1509;51.964;7.628;2022-12-07T03:27:47;19.40;;;10.97;;
2998;SDS011;1509;51.964;7.628;2022-12-07T03:30:22;20.00;;;11.03;;
2998;SDS011;1509;51.964;7.628;2022-12-07T03:32:56;24.10;;;11.70;;
2998;SDS011;1509;51.964;7.628;2022-12-07T03:35:56;17.40;;;9.60;;
2998;SDS011;1509;51.964;7.628;2022-12-07T03:38:33;24.60;;;9.63;;
2998;SDS011;1509;51.964;7.628;2022-12-07T03:43:49;18.63;;;11.37;;
2998;SDS011;1509;51.964;7.628;2022-12-07T03:46:20;14.77;;;9.73;;
2998;SDS011;1509;51.964;7.628;2022-12-07T03:57:01;20.87;;;9.33;;
2998;SDS011;1509;51.964;7.628;2022-12-07T03:59:29;18.63;;;8.53;;
2998;SDS011;1509;51.964;7.628;2022-12-07T04:01:56;21.90;;;9.77;;
2998;SDS011;1509;51.964;7.628;2022-12-07T04:04:27;20.60;;;8.70;;
2998;SDS011;1509;51.964;7.628;2022-12-07T04:06:53;17.77;;;9.97;;
2998;SDS011;1509;51.964;7.628;2022-12-07T04:09:19;21.87;;;9.50;;
2998;SDS011;1509;51.964;7.628;2022-12-07T04:11:45;11.57;;;8.47;;
2998;SDS011;1509;51.964;7.628;2022-12-07T04:14:10;17.43;;;8.10;;
2998;SDS011;1509;51.964;7.628;2022-12-07T04:16:49;14.87;;;8.07;;
2998;SDS011;1509;51.964;7.628;2022-12-07T04:19:17;16.40;;;8.47;;
2998;SDS011;1509;51.964;7.628;2022-12-07T04:21:45;15.97;;;8.77;;
2998;SDS011;1509;51.964;7.628;2022-12-07T04:24:11;15.87;;;8.00;;
2998;SDS011;1509;51.964;7.628;2022-12-07T04:26:38;10.97;;;7.50;;
2998;SDS011;1509;51.964;7.628;2022-12-07T04:29:04;13.77;;;7.93;;
2998;SDS011;1509;51.964;7.628;2022-12-07T04:31:30;11.33;;;6.97;;
2998;SDS011;1509;51.964;7.628;2022-12-07T04:33:55;12.73;;;7.70;;
2998;SDS011;1509;51.964;7.628;2022-12-07T04:36:21;19.87;;;7.23;;
2998;SDS011;1509;51.964;7.628;2022-12-07T04:38:47;13.63;;;7.00;;
2998;SDS011;1509;51.964;7.628;2022-12-07T04:41:12;10.57;;;7.37;;
2998;SDS011;1509;51.964;7.628;2022-12-07T04:43:38;11.13;;;6.80;;
2998;SDS011;1509;51.964;7.628;2022-12-07T04:46:04;12.80;;;6.97;;
2998;SDS011;1509;51.964;7.628;2022-12-07T04:48:29;13.70;;;7.37;;
2998;SDS011;1509;51.964;7.628;2022-12-07T04:50:55;8.97;;;5.87;;
2998;SDS011;1509;51.964;7.628;2022-12-07T04:53:21;15.53;;;7.30;;
2998;SDS011;1509;51.964;7.628;2022-12-07T04:55:47;10.33;;;7.00;;
2998;SDS011;1509;51.964;7.628;2022-12-07T04:58:12;8.23;;;5.90;;
2998;SDS011;1509;51.964;7.628;2022-12-07T05:00:39;10.80;;;5.83;;
2998;SDS011;1509;51.964;7.628;2022-12-07T05:03:05;9.27;;;5.80;;
2998;SDS011;1509;51.964;7.628;2022-12-07T05:05:30;10.10;;;6.20;;
2998;SDS011;1509;51.964;7.628;2022-12-07T05:07:56;10.33;;;6.03;;
2998;SDS011;1509;51.964;7.628;2022-12-07T05:10:22;10.33;;;6.07;;
2998;SDS011;1509;51.964;7.628;2022-12-07T05:12:48;11.87;;;6.60;;
2998;SDS011;1509;51.964;7.628;2022-12-07T05:15:14;9.37;;;5.37;;
2998;SDS011;1509;51.964;7.628;2022-12-07T05:17:40;9.83;;;5.30;;
2998;SDS011;1509;51.964;7.628;2022-12-07T05:20:06;14.20;;;6.10;;
2998;SDS011;1509;51.964;7.628;2022-12-07T05:22:33;10.23;;;5.70;;
2998;SDS011;1509;51.964;7.628;2022-12-07T05:24:58;9.40;;;5.60;;
2998;SDS011;1509;51.964;7.628;2022-12-07T05:27:24;11.90;;;6.13;;
2998;SDS011;1509;51.964;7.628;2022-12-07T05:29:50;13.77;;;5.60;;
2998;SDS011;1509;51.964;7.628;2022-12-07T05:32:16;9.33;;;5.10;;
2998;SDS011;1509;51.964;7.628;2022-12-07T05:34:42;11.27;;;5.50;;
2998;SDS011;1509;51.964;7.628;2022-12-07T05:37:07;8.07;;;5.30;;
2998;SDS011;1509;51.964;7.628;2022-12-07T05:39:33;8.37;;;4.87;;
2998;SDS011;1509;51.964;7.628;2022-12-07T05:41:58;9.37;;;6.00;;
2998;SDS011;1509;51.964;7.628;2022-12-07T05:44:40;10.17;;;4.80;;
2998;SDS011;1509;51.964;7.628;2022-12-07T05:47:10;8.57;;;5.10;;
2998;SDS011;1509;51.964;7.628;2022-12-07T05:49:37;9.13;;;5.60;;
2998;SDS011;1509;51.964;7.628;2022-12-07T05:52:05;12.00;;;4.80;;
2998;SDS011;1509;51.964;7.628;2022-12-07T05:54:31;11.37;;;4.43;;
2998;SDS011;1509;51.964;7.628;2022-12-07T05:56:56;6.90;;;4.40;;
2998;SDS011;1509;51.964;7.628;2022-12-07T05:59:22;11.63;;;4.73;;
2998;SDS011;1509;51.964;7.628;2022-12-07T06:01:52;11.70;;;4.90;;
2998;SDS011;1509;51.964;7.628;2022-12-07T06:04:21;6.60;;;4.13;;
2998;SDS011;1509;51.964;7.628;2022-12-07T06:06:48;7.50;;;4.73;;
2998;SDS011;1509;51.964;7.628;2022-12-07T06:09:14;9.40;;;4.00;;
2998;SDS011;1509;51.964;7.628;2022-12-07T06:11:40;10.00;;;4.70;;
2998;SDS011;1509;51.964;7.628;2022-12-07T06:14:25;7.37;;;3.80;;
2998;SDS011;1509;51.964;7.628;2022-12-07T06:16:50;9.43;;;3.30;;
2998;SDS011;1509;51.964;7.628;2022-12-07T06:19:16;7.23;;;3.33;;
2998;SDS011;1509;51.964;7.628;2022-12-07T06:21:42;9.77;;;4.03;;
2998;SDS011;1509;51.964;7.628;2022-12-07T06:24:09;10.83;;;3.63;;
2998;SDS011;1509;51.964;7.628;2022-12-07T06:26:36;9.63;;;3.07;;
2998;SDS011;1509;51.964;7.628;2022-12-07T06:29:01;7.07;;;3.97;;
2998;SDS011;1509;51.964;7.628;2022-12-07T06:31:27;8.60;;;4.00;;
2998;SDS011;1509;51.964;7.628;2022-12-07T06:34:03;8.80;;;4.10;;
2998;SDS011;1509;51.964;7.628;2022-12-07T06:36:31;11.83;;;4.80;;
2998;SDS011;1509;51.964;7.628;2022-12-07T06:38:56;8.23;;;4.20;;
2998;SDS011;1509;51.964;7.628;2022-12-07T06:41:22;6.80;;;3.97;;
2998;SDS011;1509;51.964;7.628;2022-12-07T06:43:48;8.70;;;3.80;;
2998;SDS011;1509;51.964;7.628;2022-12-07T06:46:14;17.03;;;4.63;;
2998;SDS011;1509;51.964;7.628;2022-12-07T06:48:41;12.20;;;4.57;;
2998;SDS011;1509;51.964;7.628;2022-12-07T06:51:07;9.93;;;3.83;;
2998;SDS011;1509;51.964;7.628;2022-12-07T06:53:32;6.40;;;4.07;;
2998;SDS011;1509;51.964;7.628;2022-12-07T06:55:58;7.37;;;3.50;;
2998;SDS011;1509;51.964;7.628;2022-12-07T06:58:24;6.10;;;3.03;;
2998;SDS011;1509;51.964;7.628;2022-12-07T07:00:49;7.93;;;3.97;;
2998;SDS011;1509;51.964;7.628;2022-12-07T07:03:15;10.37;;;3.70;;
2998;SDS011;1509;51.964;7.628;2022-12-07T07:05:41;10.20;;;5.13;;
2998;SDS011;1509;51.964;7.628;2022-12-07T07:08:08;6.10;;;3.90;;
2998;SDS011;1509;51.964;7.628;2022-12-07T07:10:34;6.00;;;3.43;;
2998;SDS011;1509;51.964;7.628;2022-12-07T07:13:00;8.60;;;4.17;;
2998;SDS011;1509;51.964;7.628;2022-12-07T07:15:25;12.53;;;5.10;;
2998;SDS011;1509;51.964;7.628;2022-12-07T07:17:51;7.20;;;3.70;;
2998;SDS011;1509;51.964;7.628;2022-12-07T07:20:17;7.10;;;3.83;;
2998;SDS011;1509;51.964;7.628;2022-12-07T07:22:42;7.87;;;4.70;;
2998;SDS011;1509;51.964;7.628;2022-12-07T07:25:08;15.07;;;5.20;;
2998;SDS011;1509;51.964;7.628;2022-12-07T07:27:33;12.27;;;4.30;;
2998;SDS011;1509;51.964;7.628;2022-12-07T07:29:59;12.37;;;4.00;;
2998;SDS011;1509;51.964;7.628;2022-12-07T07:32:24;8.03;;;5.20;;
2998;SDS011;1509;51.964;7.628;2022-12-07T07:34:50;8.60;;;4.80;;
2998;SDS011;1509;51.964;7.628;2022-12-07T07:37:16;7.10;;;4.07;;
2998;SDS011;1509;51.964;7.628;2022-12-07T07:39:41;12.30;;;3.90;;
2998;SDS011;1509;51.964;7.628;2022-12-07T07:42:07;6.13;;;3.00;;
2998;SDS011;1509;51.964;7.628;2022-12-07T07:44:33;4.90;;;3.20;;
2998;SDS011;1509;51.964;7.628;2022-12-07T07:47:00;5.00;;;3.40;;
2998;SDS011;1509;51.964;7.628;2022-12-07T07:49:25;8.37;;;3.80;;
2998;SDS011;1509;51.964;7.628;2022-12-07T07:51:51;7.93;;;3.57;;
2998;SDS011;1509;51.964;7.628;2022-12-07T07:54:17;5.97;;;3.30;;
2998;SDS011;1509;51.964;7.628;2022-12-07T07:56:42;7.53;;;3.07;;
2998;SDS011;1509;51.964;7.628;2022-12-07T07:59:08;8.90;;;3.67;;
2998;SDS011;1509;51.964;7.628;2022-12-07T08:01:34;7.80;;;4.30;;
2998;SDS011;1509;51.964;7.628;2022-12-07T08:04:00;6.13;;;3.20;;
2998;SDS011;1509;51.964;7.628;2022-12-07T08:06:25;6.13;;;3.30;;
2998;SDS011;1509;51.964;7.628;2022-12-07T08:08:51;11.07;;;3.43;;
2998;SDS011;1509;51.964;7.628;2022-12-07T08:11:17;8.30;;;3.67;;
2998;SDS011;1509;51.964;7.628;2022-12-07T08:13:45;6.13;;;3.47;;
2998;SDS011;1509;51.964;7.628;2022-12-07T08:16:14;10.23;;;3.80;;
2998;SDS011;1509;51.964;7.628;2022-12-07T08:18:40;8.97;;;3.60;;
2998;SDS011;1509;51.964;7.628;2022-12-07T08:21:07;7.17;;;3.10;;
2998;SDS011;1509;51.964;7.628;2022-12-07T08:23:37;9.43;;;3.83;;
2998;SDS011;1509;51.964;7.628;2022-12-07T08:26:03;7.20;;;3.90;;
2998;SDS011;1509;51.964;7.628;2022-12-07T08:28:31;7.40;;;3.73;;
2998;SDS011;1509;51.964;7.628;2022-12-07T08:31:00;7.87;;;4.03;;
2998;SDS011;1509;51.964;7.628;2022-12-07T08:33:45;6.33;;;3.77;;
2998;SDS011;1509;51.964;7.628;2022-12-07T08:36:12;6.83;;;3.20;;
2998;SDS011;1509;51.964;7.628;2022-12-07T08:38:39;6.33;;;4.20;;
2998;SDS011;1509;51.964;7.628;2022-12-07T08:41:06;7.57;;;3.27;;
2998;SDS011;1509;51.964;7.628;2022-12-07T08:43:32;10.60;;;3.50;;
2998;SDS011;1509;51.964;7.628;2022-12-07T08:48:34;8.90;;;3.63;;
2998;SDS011;1509;51.964;7.628;2022-12-07T08:51:04;5.20;;;3.53;;
2998;SDS011;1509;51.964;7.628;2022-12-07T08:53:30;9.67;;;4.50;;
2998;SDS011;1509;51.964;7.628;2022-12-07T08:55:57;6.90;;;4.00;;
2998;SDS011;1509;51.964;7.628;2022-12-07T08:58:24;9.97;;;3.93;;
2998;SDS011;1509;51.964;7.628;2022-12-07T09:00:50;7.67;;;3.90;;
2998;SDS011;1509;51.964;7.628;2022-12-07T09:03:15;9.03;;;3.20;;
2998;SDS011;1509;51.964;7.628;2022-12-07T09:05:41;10.80;;;3.80;;
2998;SDS011;1509;51.964;7.628;2022-12-07T09:08:07;8.43;;;2.60;;
2998;SDS011;1509;51.964;7.628;2022-12-07T09:10:33;8.93;;;3.70;;
2998;SDS011;1509;51.964;7.628;2022-12-07T09:12:58;4.73;;;2.50;;
2998;SDS011;1509;51.964;7.628;2022-12-07T09:15:28;11.93;;;2.57;;
2998;SDS011;1509;51.964;7.628;2022-12-07T09:17:53;8.73;;;3.33;;
2998;SDS011;1509;51.964;7.628;2022-12-07T09:20:22;5.97;;;2.57;;
2998;SDS011;1509;51.964;7.628;2022-12-07T09:22:48;7.47;;;2.20;;
2998;SDS011;1509;51.964;7.628;2022-12-07T09:25:14;5.13;;;2.67;;
2998;SDS011;1509;51.964;7.628;2022-12-07T09:27:39;6.80;;;2.90;;
2998;SDS011;1509;51.964;7.628;2022-12-07T09:30:06;7.33;;;3.00;;
2998;SDS011;1509;51.964;7.628;2022-12-07T09:32:32;4.80;;;2.30;;
2998;SDS011;1509;51.964;7.628;2022-12-07T09:34:57;5.60;;;2.90;;
2998;SDS011;1509;51.964;7.628;2022-12-07T09:37:23;4.60;;;2.80;;
2998;SDS011;1509;51.964;7.628;2022-12-07T09:39:49;6.33;;;2.60;;
2998;SDS011;1509;51.964;7.628;2022-12-07T09:42:23;4.03;;;2.20;;
2998;SDS011;1509;51.964;7.628;2022-12-07T09:45:13;4.20;;;2.57;;
2998;SDS011;1509;51.964;7.628;2022-12-07T09:47:41;4.43;;;2.40;;
2998;SDS011;1509;51.964;7.628;2022-12-07T09:50:12;8.03;;;2.83;;
2998;SDS011;1509;51.964;7.628;2022-12-07T09:52:39;8.77;;;2.50;;
2998;SDS011;1509;51.964;7.628;2022-12-07T09:55:14;7.00;;;2.73;;
2998;SDS011;1509;51.964;7.628;2022-12-07T09:57:44;6.40;;;2.40;;
2998;SDS011;1509;51.964;7.628;2022-12-07T10:00:14;5.97;;;2.57;;
2998;SDS011;1509;51.964;7.628;2022-12-07T10:02:55;9.40;;;2.40;;
2998;SDS011;1509;51.964;7.628;2022-12-07T10:05:27;5.17;;;2.40;;
2998;SDS011;1509;51.964;7.628;2022-12-07T10:08:02;3.10;;;2.13;;
2998;SDS011;1509;51.964;7.628;2022-12-07T10:10:32;5.83;;;2.37;;
2998;SDS011;1509;51.964;7.628;2022-12-07T10:13:07;2.47;;;1.70;;
2998;SDS011;1509;51.964;7.628;2022-12-07T10:15:40;4.93;;;1.53;;
2998;SDS011;1509;51.964;7.628;2022-12-07T10:18:18;11.60;;;3.00;;
2998;SDS011;1509;51.964;7.628;2022-12-07T10:20:50;3.13;;;2.20;;
2998;SDS011;1509;51.964;7.628;2022-12-07T10:23:35;2.80;;;1.90;;
2998;SDS011;1509;51.964;7.628;2022-12-07T10:26:25;8.60;;;2.80;;
2998;SDS011;1509;51.964;7.628;2022-12-07T10:29:31;3.90;;;2.10;;
2998;SDS011;1509;51.964;7.628;2022-12-07T10:32:30;4.63;;;2.13;;
2998;SDS011;1509;51.964;7.628;2022-12-07T10:37:49;3.00;;;2.03;;
2998;SDS011;1509;51.964;7.628;2022-12-07T10:48:48;4.70;;;2.50;;
2998;SDS011;1509;51.964;7.628;2022-12-07T11:02:37;7.30;;;2.57;;
2998;SDS011;1509;51.964;7.628;2022-12-07T11:05:17;5.00;;;2.50;;
2998;SDS011;1509;51.964;7.628;2022-12-07T11:08:39;4.20;;;2.83;;
2998;SDS011;1509;51.964;7.628;2022-12-07T11:10:57;6.30;;;3.57;;
2998;SDS011;1509;51.964;7.628;2022-12-07T11:16:35;3.60;;;2.13;;
2998;SDS011;1509;51.964;7.628;2022-12-07T11:19:28;4.73;;;2.20;;
2998;SDS011;1509;51.964;7.628;2022-12-07T11:28:03;4.23;;;2.20;;
2998;SDS011;1509;51.964;7.628;2022-12-07T11:31:03;6.77;;;1.70;;
2998;SDS011;1509;51.964;7.628;2022-12-07T11:36:04;8.30;;;2.87;;
2998;SDS011;1509;51.964;7.628;2022-12-07T11:38:44;7.67;;;2.00;;
2998;SDS011;1509;51.964;7.628;2022-12-07T11:41:36;4.50;;;2.20;;
2998;SDS011;1509;51.964;7.628;2022-12-07T11:44:15;4.00;;;2.30;;
2998;SDS011;1509;51.964;7.628;2022-12-07T12:00:46;3.97;;;1.90;;
2998;SDS011;1509;51.964;7.628;2022-12-07T12:03:20;2.50;;;1.67;;
2998;SDS011;1509;51.964;7.628;2022-12-07T12:05:55;8.13;;;1.83;;
2998;SDS011;1509;51.964;7.628;2022-12-07T12:08:23;8.47;;;1.63;;
2998;SDS011;1509;51.964;7.628;2022-12-07T12:16:38;6.37;;;3.20;;
2998;SDS011;1509;51.964;7.628;2022-12-07T12:19:34;5.47;;;2.00;;
2998;SDS011;1509;51.964;7.628;2022-12-07T12:22:18;7.10;;;2.03;;
2998;SDS011;1509;51.964;7.628;2022-12-07T12:24:49;5.47;;;2.80;;
2998;SDS011;1509;51.964;7.628;2022-12-07T12:27:24;4.77;;;2.37;;
2998;SDS011;1509;51.964;7.628;2022-12-07T12:29:55;3.33;;;1.63;;
2998;SDS011;1509;51.964;7.628;2022-12-07T12:32:30;4.53;;;1.50;;
2998;SDS011;1509;51.964;7.628;2022-12-07T12:40:58;5.37;;;1.90;;
2998;SDS011;1509;51.964;7.628;2022-12-07T12:43:45;6.37;;;1.97;;
2998;SDS011;1509;51.964;7.628;2022-12-07T12:47:38;9.20;;;2.80;;
2998;SDS011;1509;51.964;7.628;2022-12-07T12:51:47;11.43;;;2.00;;
2998;SDS011;1509;51.964;7.628;2022-12-07T12:54:19;6.40;;;2.00;;
2998;SDS011;1509;51.964;7.628;2022-12-07T13:15:39;5.10;;;2.13;;
2998;SDS011;1509;51.964;7.628;2022-12-07T13:18:23;5.83;;;2.17;;
2998;SDS011;1509;51.964;7.628;2022-12-07T13:23:35;2.80;;;1.63;;
2998;SDS011;1509;51.964;7.628;2022-12-07T13:28:42;5.83;;;3.03;;
2998;SDS011;1509;51.964;7.628;2022-12-07T13:31:11;7.20;;;2.07;;
2998;SDS011;1509;51.964;7.628;2022-12-07T13:33:38;3.30;;;1.83;;
2998;SDS011;1509;51.964;7.628;2022-12-07T13:36:03;10.10;;;1.97;;
2998;SDS011;1509;51.964;7.628;2022-12-07T13:38:54;6.67;;;2.20;;
2998;SDS011;1509;51.964;7.628;2022-12-07T13:41:22;7.27;;;3.17;;
2998;SDS011;1509;51.964;7.628;2022-12-07T13:44:12;11.60;;;1.93;;
2998;SDS011;1509;51.964;7.628;2022-12-07T13:49:19;4.57;;;2.47;;
2998;SDS011;1509;51.964;7.628;2022-12-07T13:51:46;6.80;;;2.90;;
2998;SDS011;1509;51.964;7.628;2022-12-07T13:54:12;7.33;;;2.17;;
2998;SDS011;1509;51.964;7.628;2022-12-07T13:56:39;6.30;;;2.70;;
2998;SDS011;1509;51.964;7.628;2022-12-07T13:59:16;5.30;;;2.27;;
2998;SDS011;1509;51.964;7.628;2022-12-07T14:01:50;3.73;;;1.47;;
2998;SDS011;1509;51.964;7.628;2022-12-07T14:04:30;5.30;;;1.63;;
2998;SDS011;1509;51.964;7.628;2022-12-07T14:06:57;3.40;;;1.40;;
2998;SDS011;1509;51.964;7.628;2022-12-07T14:09:25;5.33;;;1.80;;
2998;SDS011;1509;51.964;7.628;2022-12-07T14:11:52;7.53;;;2.80;;
2998;SDS011;1509;51.964;7.628;2022-12-07T14:14:23;6.77;;;2.00;;
2998;SDS011;1509;51.964;7.628;2022-12-07T14:17:08;6.93;;;2.20;;
2998;SDS011;1509;51.964;7.628;2022-12-07T14:20:41;12.10;;;2.57;;
2998;SDS011;1509;51.964;7.628;2022-12-07T14:22:54;7.33;;;1.80;;
2998;SDS011;1509;51.964;7.628;2022-12-07T14:25:21;3.93;;;1.47;;
2998;SDS011;1509;51.964;7.628;2022-12-07T14:30:17;4.30;;;1.90;;
2998;SDS011;1509;51.964;7.628;2022-12-07T14:32:43;5.50;;;1.60;;
2998;SDS011;1509;51.964;7.628;2022-12-07T14:35:14;2.33;;;1.50;;
2998;SDS011;1509;51.964;7.628;2022-12-07T14:37:41;4.20;;;1.37;;
2998;SDS011;1509;51.964;7.628;2022-12-07T14:40:12;9.00;;;3.17;;
2998;SDS011;1509;51.964;7.628;2022-12-07T14:42:39;18.67;;;2.80;;
2998;SDS011;1509;51.964;7.628;2022-12-07T14:45:11;5.10;;;1.47;;
2998;SDS011;1509;51.964;7.628;2022-12-07T14:47:43;7.37;;;1.60;;
2998;SDS011;1509;51.964;7.628;2022-12-07T14:50:11;4.20;;;1.43;;
2998;SDS011;1509;51.964;7.628;2022-12-07T14:52:42;2.83;;;1.20;;
2998;SDS011;1509;51.964;7.628;2022-12-07T14:55:17;9.33;;;2.07;;
2998;SDS011;1509;51.964;7.628;2022-12-07T14:57:47;4.27;;;1.43;;
2998;SDS011;1509;51.964;7.628;2022-12-07T15:00:14;3.90;;;1.63;;
2998;SDS011;1509;51.964;7.628;2022-12-07T15:02:40;2.43;;;1.47;;
2998;SDS011;1509;51.964;7.628;2022-12-07T15:05:06;4.03;;;1.67;;
2998;SDS011;1509;51.964;7.628;2022-12-07T15:07:32;4.37;;;1.33;;
2998;SDS011;1509;51.964;7.628;2022-12-07T15:09:58;5.33;;;1.20;;
2998;SDS011;1509;51.964;7.628;2022-12-07T15:12:23;4.63;;;1.53;;
2998;SDS011;1509;51.964;7.628;2022-12-07T15:14:49;4.30;;;1.73;;
2998;SDS011;1509;51.964;7.628;2022-12-07T15:17:15;4.93;;;1.73;;
2998;SDS011;1509;51.964;7.628;2022-12-07T15:19:41;5.20;;;2.07;;
2998;SDS011;1509;51.964;7.628;2022-12-07T15:22:07;5.70;;;2.20;;
2998;SDS011;1509;51.964;7.628;2022-12-07T15:24:35;6.63;;;2.27;;
2998;SDS011;1509;51.964;7.628;2022-12-07T15:27:02;5.67;;;1.80;;
2998;SDS011;1509;51.964;7.628;2022-12-07T15:29:27;9.30;;;2.27;;
2998;SDS011;1509;51.964;7.628;2022-12-07T15:31:53;6.63;;;2.30;;
2998;SDS011;1509;51.964;7.628;2022-12-07T15:34:19;10.40;;;2.40;;
2998;SDS011;1509;51.964;7.628;2022-12-07T15:36:44;7.43;;;2.77;;
2998;SDS011;1509;51.964;7.628;2022-12-07T15:39:10;6.33;;;2.10;;
2998;SDS011;1509;51.964;7.628;2022-12-07T15:41:36;7.27;;;4.40;;
2998;SDS011;1509;51.964;7.628;2022-12-07T15:44:02;3.90;;;2.37;;
2998;SDS011;1509;51.964;7.628;2022-12-07T15:46:46;6.90;;;2.63;;
2998;SDS011;1509;51.964;7.628;2022-12-07T15:49:16;3.70;;;2.43;;
2998;SDS011;1509;51.964;7.628;2022-12-07T15:51:43;4.40;;;2.40;;
2998;SDS011;1509;51.964;7.628;2022-12-07T15:54:20;6.50;;;3.47;;
2998;SDS011;1509;51.964;7.628;2022-12-07T15:56:48;4.93;;;2.80;;
2998;SDS011;1509;51.964;7.628;2022-12-07T15:59:16;5.00;;;2.50;;
2998;SDS011;1509;51.964;7.628;2022-12-07T16:01:42;9.50;;;2.43;;
2998;SDS011;1509;51.964;7.628;2022-12-07T16:04:08;7.97;;;3.07;;
2998;SDS011;1509;51.964;7.628;2022-12-07T16:06:34;8.00;;;3.37;;
2998;SDS011;1509;51.964;7.628;2022-12-07T16:09:00;16.67;;;4.00;;
2998;SDS011;1509;51.964;7.628;2022-12-07T16:11:26;6.00;;;3.07;;
2998;SDS011;1509;51.964;7.628;2022-12-07T16:13:51;4.63;;;2.60;;
2998;SDS011;1509;51.964;7.628;2022-12-07T16:16:17;11.23;;;4.03;;
2998;SDS011;1509;51.964;7.628;2022-12-07T16:18:45;8.30;;;3.67;;
2998;SDS011;1509;51.964;7.628;2022-12-07T16:21:11;6.93;;;3.30;;
2998;SDS011;1509;51.964;7.628;2022-12-07T16:23:37;7.77;;;3.50;;
2998;SDS011;1509;51.964;7.628;2022-12-07T16:26:13;7.20;;;4.50;;
2998;SDS011;1509;51.964;7.628;2022-12-07T16:28:41;15.67;;;5.70;;
2998;SDS011;1509;51.964;7.628;2022-12-07T16:31:11;5.83;;;4.40;;
2998;SDS011;1509;51.964;7.628;2022-12-07T16:33:42;9.20;;;4.80;;
2998;SDS011;1509;51.964;7.628;2022-12-07T16:36:09;11.87;;;5.77;;
2998;SDS011;1509;51.964;7.628;2022-12-07T16:38:36;10.13;;;4.10;;
2998;SDS011;1509;51.964;7.628;2022-12-07T16:41:06;8.67;;;4.43;;
2998;SDS011;1509;51.964;7.628;2022-12-07T16:43:32;18.20;;;6.00;;
2998;SDS011;1509;51.964;7.628;2022-12-07T16:45:58;11.87;;;5.77;;
2998;SDS011;1509;51.964;7.628;2022-12-07T16:48:24;6.50;;;4.87;;
2998;SDS011;1509;51.964;7.628;2022-12-07T16:50:50;8.10;;;5.20;;
2998;SDS011;1509;51.964;7.628;2022-12-07T16:53:18;9.87;;;6.20;;
2998;SDS011;1509;51.964;7.628;2022-12-07T16:55:45;8.17;;;5.67;;
2998;SDS011;1509;51.964;7.628;2022-12-07T16:58:14;8.50;;;6.40;;
2998;SDS011;1509;51.964;7.628;2022-12-07T17:00:41;16.53;;;6.60;;
2998;SDS011;1509;51.964;7.628;2022-12-07T17:03:07;7.40;;;4.97;;
2998;SDS011;1509;51.964;7.628;2022-12-07T17:05:33;11.13;;;5.47;;
2998;SDS011;1509;51.964;7.628;2022-12-07T17:08:02;16.40;;;5.83;;
2998;SDS011;1509;51.964;7.628;2022-12-07T17:10:28;8.93;;;6.23;;
2998;SDS011;1509;51.964;7.628;2022-12-07T17:12:53;14.67;;;6.70;;
2998;SDS011;1509;51.964;7.628;2022-12-07T17:15:19;8.83;;;5.80;;
2998;SDS011;1509;51.964;7.628;2022-12-07T17:17:52;11.50;;;6.67;;
2998;SDS011;1509;51.964;7.628;2022-12-07T17:20:19;17.53;;;7.83;;
2998;SDS011;1509;51.964;7.628;2022-12-07T17:22:46;8.70;;;6.10;;
2998;SDS011;1509;51.964;7.628;2022-12-07T17:25:12;6.53;;;5.40;;
2998;SDS011;1509;51.964;7.628;2022-12-07T17:27:38;11.73;;;7.30;;
2998;SDS011;1509;51.964;7.628;2022-12-07T17:30:04;10.37;;;6.40;;